sensor_id;sensor_type;location;lat;lon;timestamp;temperature;humidity
3628;DHT22;1830;49.000;12.074;2023-09-19T00:00:06;15.50;99.90
3628;DHT22;1830;49.000;12.074;2023-09-19T00:02:38;15.50;99.90
3628;DHT22;1830;49.000;12.074;2023-09-19T00:05:05;15.60;99.90
3628;DHT22;1830;49.000;12.074;2023-09-19T00:07:33;15.60;99.90
3628;DHT22;1830;49.000;12.074;2023-09-19T00:10:02;15.60;99.90
3628;DHT22;1830;49.000;12.074;2023-09-19T00:12:31;15.60;99.90
3628;DHT22;1830;49.000;12.074;2023-09-19T00:14:59;15.60;99.90
3628;DHT22;1830;49.000;12.074;2023-09-19T00:17:26;15.50;99.90
3628;DHT22;1830;49.000;12.074;2023-09-19T00:19:56;15.50;99.90
3628;DHT22;1830;49.000;12.074;2023-09-19T00:22:22;15.50;99.90
3628;DHT22;1830;49.000;12.074;2023-09-19T00:24:52;15.50;99.90
3628;DHT22;1830;49.000;12.074;2023-09-19T00:27:19;15.60;99.90
3628;DHT22;1830;49.000;12.074;2023-09-19T00:29:46;15.60;99.90
3628;DHT22;1830;49.000;12.074;2023-09-19T00:32:14;15.60;99.90
3628;DHT22;1830;49.000;12.074;2023-09-19T00:34:40;15.60;99.90
3628;DHT22;1830;49.000;12.074;2023-09-19T00:37:08;15.60;99.90
3628;DHT22;1830;49.000;12.074;2023-09-19T00:39:36;15.60;99.90
3628;DHT22;1830;49.000;12.074;2023-09-19T00:42:04;15.50;99.90
3628;DHT22;1830;49.000;12.074;2023-09-19T00:44:30;15.60;99.90
3628;DHT22;1830;49.000;12.074;2023-09-19T00:47:00;15.60;99.90
3628;DHT22;1830;49.000;12.074;2023-09-19T00:49:29;15.60;99.90
3628;DHT22;1830;49.000;12.074;2023-09-19T00:51:56;15.60;99.90
3628;DHT22;1830;49.000;12.074;2023-09-19T00:54:23;15.50;99.90
3628;DHT22;1830;49.000;12.074;2023-09-19T00:56:51;15.50;99.90
3628;DHT22;1830;49.000;12.074;2023-09-19T00:59:20;15.60;99.90
3628;DHT22;1830;49.000;12.074;2023-09-19T01:01:47;15.50;99.90
3628;DHT22;1830;49.000;12.074;2023-09-19T01:04:18;15.60;99.90
3628;DHT22;1830;49.000;12.074;2023-09-19T01:06:46;15.50;99.90
3628;DHT22;1830;49.000;12.074;2023-09-19T01:09:18;15.50;99.90
3628;DHT22;1830;49.000;12.074;2023-09-19T01:11:48;15.60;99.90
3628;DHT22;1830;49.000;12.074;2023-09-19T01:14:28;15.50;99.90
3628;DHT22;1830;49.000;12.074;2023-09-19T01:17:00;15.50;99.90
3628;DHT22;1830;49.000;12.074;2023-09-19T01:20:03;15.50;99.90
3628;DHT22;1830;49.000;12.074;2023-09-19T01:22:41;15.60;99.90
3628;DHT22;1830;49.000;12.074;2023-09-19T01:25:50;15.60;99.90
3628;DHT22;1830;49.000;12.074;2023-09-19T01:28:31;15.60;99.90
3628;DHT22;1830;49.000;12.074;2023-09-19T01:31:03;15.60;99.90
3628;DHT22;1830;49.000;12.074;2023-09-19T01:33:55;15.70;99.90
3628;DHT22;1830;49.000;12.074;2023-09-19T01:36:25;15.70;99.90
3628;DHT22;1830;49.000;12.074;2023-09-19T01:38:53;15.80;99.90
3628;DHT22;1830;49.000;12.074;2023-09-19T01:41:26;15.80;99.90
3628;DHT22;1830;49.000;12.074;2023-09-19T01:43:56;15.80;99.90
3628;DHT22;1830;49.000;12.074;2023-09-19T01:46:32;15.80;99.90
3628;DHT22;1830;49.000;12.074;2023-09-19T01:49:12;15.80;99.90
3628;DHT22;1830;49.000;12.074;2023-09-19T01:51:44;15.80;99.90
3628;DHT22;1830;49.000;12.074;2023-09-19T01:54:17;15.90;99.90
3628;DHT22;1830;49.000;12.074;2023-09-19T01:56:49;15.80;99.90
3628;DHT22;1830;49.000;12.074;2023-09-19T01:59:24;15.90;99.90
3628;DHT22;1830;49.000;12.074;2023-09-19T02:01:54;15.80;99.90
3628;DHT22;1830;49.000;12.074;2023-09-19T02:04:22;15.90;99.90
3628;DHT22;1830;49.000;12.074;2023-09-19T02:06:49;15.90;99.90
3628;DHT22;1830;49.000;12.074;2023-09-19T02:09:17;15.90;99.90
3628;DHT22;1830;49.000;12.074;2023-09-19T02:11:43;15.80;99.90
3628;DHT22;1830;49.000;12.074;2023-09-19T02:14:10;15.80;99.90
3628;DHT22;1830;49.000;12.074;2023-09-19T02:16:37;15.90;99.90
3628;DHT22;1830;49.000;12.074;2023-09-19T02:19:05;15.90;99.90
3628;DHT22;1830;49.000;12.074;2023-09-19T02:21:32;15.80;99.90
3628;DHT22;1830;49.000;12.074;2023-09-19T02:23:58;15.80;99.90
3628;DHT22;1830;49.000;12.074;2023-09-19T02:26:25;15.90;99.90
3628;DHT22;1830;49.000;12.074;2023-09-19T02:28:53;15.90;99.90
3628;DHT22;1830;49.000;12.074;2023-09-19T02:31:19;15.90;99.90
3628;DHT22;1830;49.000;12.074;2023-09-19T02:33:46;15.90;99.90
3628;DHT22;1830;49.000;12.074;2023-09-19T02:36:14;15.90;99.90
3628;DHT22;1830;49.000;12.074;2023-09-19T02:38:42;15.90;99.90
3628;DHT22;1830;49.000;12.074;2023-09-19T02:41:09;15.90;99.90
3628;DHT22;1830;49.000;12.074;2023-09-19T02:43:37;15.90;99.90
3628;DHT22;1830;49.000;12.074;2023-09-19T02:46:04;15.90;99.90
3628;DHT22;1830;49.000;12.074;2023-09-19T02:48:31;15.90;99.90
3628;DHT22;1830;49.000;12.074;2023-09-19T02:51:00;15.90;99.90
3628;DHT22;1830;49.000;12.074;2023-09-19T02:53:28;15.90;99.90
3628;DHT22;1830;49.000;12.074;2023-09-19T02:55:56;15.90;99.90
3628;DHT22;1830;49.000;12.074;2023-09-19T02:58:24;15.90;99.90
3628;DHT22;1830;49.000;12.074;2023-09-19T03:00:53;15.90;99.90
3628;DHT22;1830;49.000;12.074;2023-09-19T03:03:20;15.80;99.90
3628;DHT22;1830;49.000;12.074;2023-09-19T03:05:48;15.80;99.90
3628;DHT22;1830;49.000;12.074;2023-09-19T03:08:17;15.80;99.90
3628;DHT22;1830;49.000;12.074;2023-09-19T03:10:47;15.80;99.90
3628;DHT22;1830;49.000;12.074;2023-09-19T03:13:14;15.90;99.90
3628;DHT22;1830;49.000;12.074;2023-09-19T03:15:41;15.80;99.90
3628;DHT22;1830;49.000;12.074;2023-09-19T03:18:09;15.80;99.90
3628;DHT22;1830;49.000;12.074;2023-09-19T03:20:36;15.80;99.90
3628;DHT22;1830;49.000;12.074;2023-09-19T03:23:04;15.80;99.90
3628;DHT22;1830;49.000;12.074;2023-09-19T03:25:34;15.90;99.90
3628;DHT22;1830;49.000;12.074;2023-09-19T03:28:03;15.90;99.90
3628;DHT22;1830;49.000;12.074;2023-09-19T03:30:31;15.90;99.90
3628;DHT22;1830;49.000;12.074;2023-09-19T03:32:59;15.90;99.90
3628;DHT22;1830;49.000;12.074;2023-09-19T03:35:26;15.90;99.90
3628;DHT22;1830;49.000;12.074;2023-09-19T03:37:53;15.90;99.90
3628;DHT22;1830;49.000;12.074;2023-09-19T03:40:19;15.90;99.90
3628;DHT22;1830;49.000;12.074;2023-09-19T03:42:47;15.90;99.90
3628;DHT22;1830;49.000;12.074;2023-09-19T03:45:15;15.90;99.90
3628;DHT22;1830;49.000;12.074;2023-09-19T03:47:44;15.90;99.90
3628;DHT22;1830;49.000;12.074;2023-09-19T03:50:12;15.80;99.90
3628;DHT22;1830;49.000;12.074;2023-09-19T03:52:40;15.80;99.90
3628;DHT22;1830;49.000;12.074;2023-09-19T03:55:08;15.90;99.90
3628;DHT22;1830;49.000;12.074;2023-09-19T03:57:35;15.90;99.90
3628;DHT22;1830;49.000;12.074;2023-09-19T04:00:02;15.90;99.90
3628;DHT22;1830;49.000;12.074;2023-09-19T04:02:38;15.90;99.90
3628;DHT22;1830;49.000;12.074;2023-09-19T04:05:05;15.90;99.90
3628;DHT22;1830;49.000;12.074;2023-09-19T04:07:32;15.80;99.90
3628;DHT22;1830;49.000;12.074;2023-09-19T04:10:00;15.80;99.90
3628;DHT22;1830;49.000;12.074;2023-09-19T04:12:28;15.80;99.90
3628;DHT22;1830;49.000;12.074;2023-09-19T04:14:56;15.90;99.90
3628;DHT22;1830;49.000;12.074;2023-09-19T04:17:24;15.90;99.90
3628;DHT22;1830;49.000;12.074;2023-09-19T04:19:52;15.90;99.90
3628;DHT22;1830;49.000;12.074;2023-09-19T04:22:19;15.90;99.90
3628;DHT22;1830;49.000;12.074;2023-09-19T04:24:46;15.90;99.90
3628;DHT22;1830;49.000;12.074;2023-09-19T04:27:13;15.90;99.90
3628;DHT22;1830;49.000;12.074;2023-09-19T04:29:41;15.90;99.90
3628;DHT22;1830;49.000;12.074;2023-09-19T04:32:08;15.90;99.90
3628;DHT22;1830;49.000;12.074;2023-09-19T04:34:35;15.90;99.90
3628;DHT22;1830;49.000;12.074;2023-09-19T04:37:04;15.80;99.90
3628;DHT22;1830;49.000;12.074;2023-09-19T04:39:31;15.80;99.90
3628;DHT22;1830;49.000;12.074;2023-09-19T04:41:59;15.80;99.90
3628;DHT22;1830;49.000;12.074;2023-09-19T04:44:26;15.80;99.90
3628;DHT22;1830;49.000;12.074;2023-09-19T04:46:53;15.80;99.90
3628;DHT22;1830;49.000;12.074;2023-09-19T04:49:20;15.80;99.90
3628;DHT22;1830;49.000;12.074;2023-09-19T04:51:47;15.80;99.90
3628;DHT22;1830;49.000;12.074;2023-09-19T04:54:15;15.80;99.90
3628;DHT22;1830;49.000;12.074;2023-09-19T04:56:43;15.80;99.90
3628;DHT22;1830;49.000;12.074;2023-09-19T04:59:12;15.80;99.90
3628;DHT22;1830;49.000;12.074;2023-09-19T05:01:40;15.80;99.90
3628;DHT22;1830;49.000;12.074;2023-09-19T05:04:07;15.80;99.90
3628;DHT22;1830;49.000;12.074;2023-09-19T05:06:34;15.80;99.90
3628;DHT22;1830;49.000;12.074;2023-09-19T05:09:01;15.80;99.90
3628;DHT22;1830;49.000;12.074;2023-09-19T05:11:32;15.80;99.90
3628;DHT22;1830;49.000;12.074;2023-09-19T05:13:59;15.80;99.90
3628;DHT22;1830;49.000;12.074;2023-09-19T05:16:29;15.80;99.90
3628;DHT22;1830;49.000;12.074;2023-09-19T05:18:56;15.90;99.90
3628;DHT22;1830;49.000;12.074;2023-09-19T05:21:23;15.80;99.90
3628;DHT22;1830;49.000;12.074;2023-09-19T05:23:51;15.90;99.90
3628;DHT22;1830;49.000;12.074;2023-09-19T05:26:18;15.80;99.90
3628;DHT22;1830;49.000;12.074;2023-09-19T05:28:46;15.80;99.90
3628;DHT22;1830;49.000;12.074;2023-09-19T05:31:13;15.80;99.90
3628;DHT22;1830;49.000;12.074;2023-09-19T05:33:41;15.80;99.90
3628;DHT22;1830;49.000;12.074;2023-09-19T05:36:07;15.80;99.90
3628;DHT22;1830;49.000;12.074;2023-09-19T05:38:36;15.80;99.90
3628;DHT22;1830;49.000;12.074;2023-09-19T05:41:05;15.80;99.90
3628;DHT22;1830;49.000;12.074;2023-09-19T05:43:32;15.80;99.90
3628;DHT22;1830;49.000;12.074;2023-09-19T05:46:01;15.80;99.90
3628;DHT22;1830;49.000;12.074;2023-09-19T05:48:28;15.70;99.90
3628;DHT22;1830;49.000;12.074;2023-09-19T05:50:55;15.70;99.90
3628;DHT22;1830;49.000;12.074;2023-09-19T05:53:22;15.70;99.90
3628;DHT22;1830;49.000;12.074;2023-09-19T05:55:49;15.70;99.90
3628;DHT22;1830;49.000;12.074;2023-09-19T05:58:17;15.70;99.90
3628;DHT22;1830;49.000;12.074;2023-09-19T06:00:45;15.70;99.90
3628;DHT22;1830;49.000;12.074;2023-09-19T06:03:15;15.70;99.90
3628;DHT22;1830;49.000;12.074;2023-09-19T06:05:43;15.70;99.90
3628;DHT22;1830;49.000;12.074;2023-09-19T06:08:11;15.70;99.90
3628;DHT22;1830;49.000;12.074;2023-09-19T06:10:38;15.70;99.90
3628;DHT22;1830;49.000;12.074;2023-09-19T06:13:05;15.70;99.90
3628;DHT22;1830;49.000;12.074;2023-09-19T06:15:35;15.80;99.90
3628;DHT22;1830;49.000;12.074;2023-09-19T06:18:02;15.70;99.90
3628;DHT22;1830;49.000;12.074;2023-09-19T06:20:31;15.70;99.90
3628;DHT22;1830;49.000;12.074;2023-09-19T06:22:58;15.70;99.90
3628;DHT22;1830;49.000;12.074;2023-09-19T06:25:27;15.70;99.90
3628;DHT22;1830;49.000;12.074;2023-09-19T06:27:54;15.80;99.90
3628;DHT22;1830;49.000;12.074;2023-09-19T06:30:22;15.80;99.90
3628;DHT22;1830;49.000;12.074;2023-09-19T06:32:49;15.80;99.90
3628;DHT22;1830;49.000;12.074;2023-09-19T06:35:21;15.90;99.90
3628;DHT22;1830;49.000;12.074;2023-09-19T06:37:50;16.00;99.90
3628;DHT22;1830;49.000;12.074;2023-09-19T06:40:16;16.00;99.90
3628;DHT22;1830;49.000;12.074;2023-09-19T06:42:46;16.00;99.90
3628;DHT22;1830;49.000;12.074;2023-09-19T06:45:13;16.10;99.90
3628;DHT22;1830;49.000;12.074;2023-09-19T06:47:44;16.30;99.90
3628;DHT22;1830;49.000;12.074;2023-09-19T06:50:11;16.40;99.90
3628;DHT22;1830;49.000;12.074;2023-09-19T06:52:40;16.40;99.90
3628;DHT22;1830;49.000;12.074;2023-09-19T06:55:08;16.40;99.90
3628;DHT22;1830;49.000;12.074;2023-09-19T06:57:37;16.50;99.90
3628;DHT22;1830;49.000;12.074;2023-09-19T07:00:07;16.50;99.90
3628;DHT22;1830;49.000;12.074;2023-09-19T07:02:40;16.50;99.90
3628;DHT22;1830;49.000;12.074;2023-09-19T07:05:08;16.60;99.90
3628;DHT22;1830;49.000;12.074;2023-09-19T07:07:35;16.50;99.90
3628;DHT22;1830;49.000;12.074;2023-09-19T07:10:01;16.50;99.90
3628;DHT22;1830;49.000;12.074;2023-09-19T07:12:32;16.50;99.90
3628;DHT22;1830;49.000;12.074;2023-09-19T07:14:59;16.50;99.90
3628;DHT22;1830;49.000;12.074;2023-09-19T07:17:26;16.60;99.90
3628;DHT22;1830;49.000;12.074;2023-09-19T07:19:54;16.60;99.90
3628;DHT22;1830;49.000;12.074;2023-09-19T07:22:21;16.70;99.90
3628;DHT22;1830;49.000;12.074;2023-09-19T07:24:49;16.80;99.90
3628;DHT22;1830;49.000;12.074;2023-09-19T07:27:15;16.80;99.90
3628;DHT22;1830;49.000;12.074;2023-09-19T07:29:44;16.70;99.90
3628;DHT22;1830;49.000;12.074;2023-09-19T07:32:11;16.80;99.90
3628;DHT22;1830;49.000;12.074;2023-09-19T07:34:38;16.90;99.90
3628;DHT22;1830;49.000;12.074;2023-09-19T07:37:06;16.90;99.90
3628;DHT22;1830;49.000;12.074;2023-09-19T07:39:33;16.90;99.90
3628;DHT22;1830;49.000;12.074;2023-09-19T07:42:00;17.00;99.90
3628;DHT22;1830;49.000;12.074;2023-09-19T07:44:27;17.00;99.90
3628;DHT22;1830;49.000;12.074;2023-09-19T07:46:55;17.10;99.90
3628;DHT22;1830;49.000;12.074;2023-09-19T07:49:22;17.20;99.90
3628;DHT22;1830;49.000;12.074;2023-09-19T07:51:49;17.20;99.90
3628;DHT22;1830;49.000;12.074;2023-09-19T07:54:15;17.30;99.90
3628;DHT22;1830;49.000;12.074;2023-09-19T07:56:42;17.40;99.90
3628;DHT22;1830;49.000;12.074;2023-09-19T07:59:11;17.40;99.90
3628;DHT22;1830;49.000;12.074;2023-09-19T08:01:39;17.50;99.90
3628;DHT22;1830;49.000;12.074;2023-09-19T08:04:08;17.40;99.90
3628;DHT22;1830;49.000;12.074;2023-09-19T08:06:35;17.30;99.90
3628;DHT22;1830;49.000;12.074;2023-09-19T08:09:03;17.30;99.90
3628;DHT22;1830;49.000;12.074;2023-09-19T08:11:34;17.30;99.90
3628;DHT22;1830;49.000;12.074;2023-09-19T08:14:01;17.30;99.90
3628;DHT22;1830;49.000;12.074;2023-09-19T08:16:28;17.30;99.90
3628;DHT22;1830;49.000;12.074;2023-09-19T08:18:54;17.40;99.90
3628;DHT22;1830;49.000;12.074;2023-09-19T08:21:23;17.50;99.90
3628;DHT22;1830;49.000;12.074;2023-09-19T08:23:51;17.60;99.90
3628;DHT22;1830;49.000;12.074;2023-09-19T08:26:18;17.60;99.90
3628;DHT22;1830;49.000;12.074;2023-09-19T08:28:45;17.60;99.90
3628;DHT22;1830;49.000;12.074;2023-09-19T08:31:13;17.60;99.90
3628;DHT22;1830;49.000;12.074;2023-09-19T08:33:40;17.70;99.90
3628;DHT22;1830;49.000;12.074;2023-09-19T08:36:08;17.70;99.90
3628;DHT22;1830;49.000;12.074;2023-09-19T08:38:36;17.80;99.90
3628;DHT22;1830;49.000;12.074;2023-09-19T08:41:06;17.80;99.90
3628;DHT22;1830;49.000;12.074;2023-09-19T08:43:33;17.80;99.90
3628;DHT22;1830;49.000;12.074;2023-09-19T08:46:10;17.90;99.90
3628;DHT22;1830;49.000;12.074;2023-09-19T08:48:39;17.90;99.90
3628;DHT22;1830;49.000;12.074;2023-09-19T08:51:17;17.90;99.90
3628;DHT22;1830;49.000;12.074;2023-09-19T08:53:51;18.10;99.90
3628;DHT22;1830;49.000;12.074;2023-09-19T08:56:18;18.10;99.90
3628;DHT22;1830;49.000;12.074;2023-09-19T08:58:50;18.10;99.90
3628;DHT22;1830;49.000;12.074;2023-09-19T09:01:18;18.10;99.90
3628;DHT22;1830;49.000;12.074;2023-09-19T09:03:51;18.10;99.90
3628;DHT22;1830;49.000;12.074;2023-09-19T09:06:19;18.20;99.90
3628;DHT22;1830;49.000;12.074;2023-09-19T09:08:47;18.30;99.90
3628;DHT22;1830;49.000;12.074;2023-09-19T09:11:15;18.40;99.90
3628;DHT22;1830;49.000;12.074;2023-09-19T09:13:43;18.50;99.90
3628;DHT22;1830;49.000;12.074;2023-09-19T09:16:11;18.50;99.90
3628;DHT22;1830;49.000;12.074;2023-09-19T09:18:38;18.50;99.90
3628;DHT22;1830;49.000;12.074;2023-09-19T09:21:05;18.50;99.90
3628;DHT22;1830;49.000;12.074;2023-09-19T09:23:32;18.50;99.90
3628;DHT22;1830;49.000;12.074;2023-09-19T09:26:00;18.40;99.90
3628;DHT22;1830;49.000;12.074;2023-09-19T09:28:32;18.20;99.90
3628;DHT22;1830;49.000;12.074;2023-09-19T09:31:01;18.20;99.90
3628;DHT22;1830;49.000;12.074;2023-09-19T09:33:33;18.20;99.90
3628;DHT22;1830;49.000;12.074;2023-09-19T09:36:02;18.20;99.90
3628;DHT22;1830;49.000;12.074;2023-09-19T09:38:43;18.20;99.90
3628;DHT22;1830;49.000;12.074;2023-09-19T09:41:12;18.00;99.90
3628;DHT22;1830;49.000;12.074;2023-09-19T09:43:42;17.90;99.90
3628;DHT22;1830;49.000;12.074;2023-09-19T09:46:13;17.80;99.90
3628;DHT22;1830;49.000;12.074;2023-09-19T09:49:00;17.70;99.90
3628;DHT22;1830;49.000;12.074;2023-09-19T09:51:42;17.60;99.90
3628;DHT22;1830;49.000;12.074;2023-09-19T09:54:13;17.60;99.90
3628;DHT22;1830;49.000;12.074;2023-09-19T09:56:56;17.60;99.90
3628;DHT22;1830;49.000;12.074;2023-09-19T09:59:44;17.50;99.90
3628;DHT22;1830;49.000;12.074;2023-09-19T10:02:13;17.50;99.90
3628;DHT22;1830;49.000;12.074;2023-09-19T10:04:41;17.50;99.90
3628;DHT22;1830;49.000;12.074;2023-09-19T10:07:28;17.50;99.90
3628;DHT22;1830;49.000;12.074;2023-09-19T10:09:58;17.50;99.90
3628;DHT22;1830;49.000;12.074;2023-09-19T10:12:39;17.60;99.90
3628;DHT22;1830;49.000;12.074;2023-09-19T10:15:08;17.70;99.90
3628;DHT22;1830;49.000;12.074;2023-09-19T10:17:38;17.70;99.90
3628;DHT22;1830;49.000;12.074;2023-09-19T10:20:10;17.70;99.90
3628;DHT22;1830;49.000;12.074;2023-09-19T10:22:48;17.80;99.90
3628;DHT22;1830;49.000;12.074;2023-09-19T10:25:25;17.90;99.90
3628;DHT22;1830;49.000;12.074;2023-09-19T10:27:56;17.90;99.90
3628;DHT22;1830;49.000;12.074;2023-09-19T10:30:25;18.10;99.90
3628;DHT22;1830;49.000;12.074;2023-09-19T10:32:59;18.20;99.90
3628;DHT22;1830;49.000;12.074;2023-09-19T10:35:27;18.30;99.90
3628;DHT22;1830;49.000;12.074;2023-09-19T10:37:57;18.30;99.90
3628;DHT22;1830;49.000;12.074;2023-09-19T10:40:27;18.40;99.90
3628;DHT22;1830;49.000;12.074;2023-09-19T10:43:01;18.30;99.90
3628;DHT22;1830;49.000;12.074;2023-09-19T10:45:31;18.40;99.90
3628;DHT22;1830;49.000;12.074;2023-09-19T10:47:58;18.50;99.90
3628;DHT22;1830;49.000;12.074;2023-09-19T10:50:27;18.50;99.90
3628;DHT22;1830;49.000;12.074;2023-09-19T10:53:00;18.40;99.90
3628;DHT22;1830;49.000;12.074;2023-09-19T10:55:32;18.50;99.90
3628;DHT22;1830;49.000;12.074;2023-09-19T10:58:02;18.60;99.90
3628;DHT22;1830;49.000;12.074;2023-09-19T11:00:51;18.60;99.90
3628;DHT22;1830;49.000;12.074;2023-09-19T11:03:22;18.70;99.90
3628;DHT22;1830;49.000;12.074;2023-09-19T11:06:05;18.70;99.90
3628;DHT22;1830;49.000;12.074;2023-09-19T11:08:55;18.70;99.90
3628;DHT22;1830;49.000;12.074;2023-09-19T11:11:39;18.80;99.90
3628;DHT22;1830;49.000;12.074;2023-09-19T11:14:30;18.70;99.90
3628;DHT22;1830;49.000;12.074;2023-09-19T11:20:30;18.60;99.90
3628;DHT22;1830;49.000;12.074;2023-09-19T11:23:18;18.60;99.90
3628;DHT22;1830;49.000;12.074;2023-09-19T11:25:44;18.70;99.90
3628;DHT22;1830;49.000;12.074;2023-09-19T11:28:35;18.80;99.90
3628;DHT22;1830;49.000;12.074;2023-09-19T11:34:41;19.10;99.90
3628;DHT22;1830;49.000;12.074;2023-09-19T11:40:35;19.30;99.90
3628;DHT22;1830;49.000;12.074;2023-09-19T11:43:29;19.20;99.90
3628;DHT22;1830;49.000;12.074;2023-09-19T11:46:05;19.30;99.90
3628;DHT22;1830;49.000;12.074;2023-09-19T11:48:32;19.40;99.90
3628;DHT22;1830;49.000;12.074;2023-09-19T11:51:11;19.30;99.90
3628;DHT22;1830;49.000;12.074;2023-09-19T11:53:45;19.40;99.90
3628;DHT22;1830;49.000;12.074;2023-09-19T11:56:14;19.50;99.90
3628;DHT22;1830;49.000;12.074;2023-09-19T11:58:43;19.50;99.90
3628;DHT22;1830;49.000;12.074;2023-09-19T12:01:13;19.50;99.90
3628;DHT22;1830;49.000;12.074;2023-09-19T12:03:47;19.40;99.90
3628;DHT22;1830;49.000;12.074;2023-09-19T12:06:20;19.60;99.90
3628;DHT22;1830;49.000;12.074;2023-09-19T12:08:48;19.70;99.90
3628;DHT22;1830;49.000;12.074;2023-09-19T12:11:17;19.70;99.90
3628;DHT22;1830;49.000;12.074;2023-09-19T12:13:47;19.90;99.90
3628;DHT22;1830;49.000;12.074;2023-09-19T12:16:15;20.00;99.90
3628;DHT22;1830;49.000;12.074;2023-09-19T12:18:43;20.10;99.90
3628;DHT22;1830;49.000;12.074;2023-09-19T12:21:27;20.20;99.90
3628;DHT22;1830;49.000;12.074;2023-09-19T12:23:58;20.30;99.90
3628;DHT22;1830;49.000;12.074;2023-09-19T12:26:26;20.20;99.90
3628;DHT22;1830;49.000;12.074;2023-09-19T12:28:54;20.40;99.90
3628;DHT22;1830;49.000;12.074;2023-09-19T12:31:21;20.40;99.90
3628;DHT22;1830;49.000;12.074;2023-09-19T12:33:53;20.20;99.90
3628;DHT22;1830;49.000;12.074;2023-09-19T12:36:21;20.20;99.90
3628;DHT22;1830;49.000;12.074;2023-09-19T12:38:52;20.10;99.90
3628;DHT22;1830;49.000;12.074;2023-09-19T12:41:20;20.20;99.90
3628;DHT22;1830;49.000;12.074;2023-09-19T12:43:48;20.30;99.90
3628;DHT22;1830;49.000;12.074;2023-09-19T12:46:20;20.40;99.90
3628;DHT22;1830;49.000;12.074;2023-09-19T12:51:35;20.60;99.90
3628;DHT22;1830;49.000;12.074;2023-09-19T12:54:04;20.40;99.90
3628;DHT22;1830;49.000;12.074;2023-09-19T12:56:39;20.40;99.90
3628;DHT22;1830;49.000;12.074;2023-09-19T12:59:07;20.60;99.90
3628;DHT22;1830;49.000;12.074;2023-09-19T13:01:35;20.60;99.90
3628;DHT22;1830;49.000;12.074;2023-09-19T13:04:16;20.70;99.90
3628;DHT22;1830;49.000;12.074;2023-09-19T13:06:46;20.70;99.90
3628;DHT22;1830;49.000;12.074;2023-09-19T13:09:16;20.80;99.90
3628;DHT22;1830;49.000;12.074;2023-09-19T13:11:44;21.00;99.90
3628;DHT22;1830;49.000;12.074;2023-09-19T13:14:16;21.20;99.90
3628;DHT22;1830;49.000;12.074;2023-09-19T13:16:57;21.20;99.90
3628;DHT22;1830;49.000;12.074;2023-09-19T13:19:38;21.20;99.90
3628;DHT22;1830;49.000;12.074;2023-09-19T13:22:39;21.20;99.90
3628;DHT22;1830;49.000;12.074;2023-09-19T13:25:09;21.30;99.90
3628;DHT22;1830;49.000;12.074;2023-09-19T13:27:40;21.20;99.90
3628;DHT22;1830;49.000;12.074;2023-09-19T13:30:08;21.30;99.90
3628;DHT22;1830;49.000;12.074;2023-09-19T13:32:35;21.40;99.90
3628;DHT22;1830;49.000;12.074;2023-09-19T13:35:03;21.40;99.90
3628;DHT22;1830;49.000;12.074;2023-09-19T13:37:32;21.40;99.90
3628;DHT22;1830;49.000;12.074;2023-09-19T13:40:01;21.50;99.90
3628;DHT22;1830;49.000;12.074;2023-09-19T13:42:36;21.60;99.90
3628;DHT22;1830;49.000;12.074;2023-09-19T13:45:05;21.70;99.90
3628;DHT22;1830;49.000;12.074;2023-09-19T13:47:37;21.70;99.90
3628;DHT22;1830;49.000;12.074;2023-09-19T13:50:07;21.60;99.90
3628;DHT22;1830;49.000;12.074;2023-09-19T13:52:34;21.50;99.90
3628;DHT22;1830;49.000;12.074;2023-09-19T13:55:01;21.30;99.90
3628;DHT22;1830;49.000;12.074;2023-09-19T13:57:28;21.10;99.90
3628;DHT22;1830;49.000;12.074;2023-09-19T13:59:56;21.20;99.90
3628;DHT22;1830;49.000;12.074;2023-09-19T14:02:23;21.10;99.90
3628;DHT22;1830;49.000;12.074;2023-09-19T14:04:49;21.00;99.60
3628;DHT22;1830;49.000;12.074;2023-09-19T14:07:16;20.90;99.90
3628;DHT22;1830;49.000;12.074;2023-09-19T14:09:46;20.90;99.90
3628;DHT22;1830;49.000;12.074;2023-09-19T14:12:13;20.90;99.90
3628;DHT22;1830;49.000;12.074;2023-09-19T14:14:40;20.90;99.40
3628;DHT22;1830;49.000;12.074;2023-09-19T14:17:09;20.90;99.20
3628;DHT22;1830;49.000;12.074;2023-09-19T14:19:35;21.00;98.50
3628;DHT22;1830;49.000;12.074;2023-09-19T14:22:04;20.90;98.70
3628;DHT22;1830;49.000;12.074;2023-09-19T14:24:33;20.90;98.90
3628;DHT22;1830;49.000;12.074;2023-09-19T14:27:00;20.90;98.80
3628;DHT22;1830;49.000;12.074;2023-09-19T14:29:29;20.90;99.60
3628;DHT22;1830;49.000;12.074;2023-09-19T14:31:56;20.90;99.90
3628;DHT22;1830;49.000;12.074;2023-09-19T14:34:24;20.90;99.90
3628;DHT22;1830;49.000;12.074;2023-09-19T14:36:51;20.90;99.90
3628;DHT22;1830;49.000;12.074;2023-09-19T14:39:20;21.00;99.90
3628;DHT22;1830;49.000;12.074;2023-09-19T14:41:46;20.90;99.90
3628;DHT22;1830;49.000;12.074;2023-09-19T14:44:13;20.80;99.90
3628;DHT22;1830;49.000;12.074;2023-09-19T14:46:41;20.80;99.90
3628;DHT22;1830;49.000;12.074;2023-09-19T14:49:09;20.90;99.90
3628;DHT22;1830;49.000;12.074;2023-09-19T14:51:37;20.80;99.90
3628;DHT22;1830;49.000;12.074;2023-09-19T14:54:05;20.80;99.90
3628;DHT22;1830;49.000;12.074;2023-09-19T14:56:33;20.70;99.90
3628;DHT22;1830;49.000;12.074;2023-09-19T14:59:00;20.70;99.90
3628;DHT22;1830;49.000;12.074;2023-09-19T15:01:28;20.70;99.90
3628;DHT22;1830;49.000;12.074;2023-09-19T15:03:55;20.70;99.90
3628;DHT22;1830;49.000;12.074;2023-09-19T15:06:22;20.80;99.90
3628;DHT22;1830;49.000;12.074;2023-09-19T15:08:50;20.80;99.90
3628;DHT22;1830;49.000;12.074;2023-09-19T15:11:17;20.80;99.90
3628;DHT22;1830;49.000;12.074;2023-09-19T15:13:46;20.70;99.90
3628;DHT22;1830;49.000;12.074;2023-09-19T15:16:14;20.70;99.90
3628;DHT22;1830;49.000;12.074;2023-09-19T15:18:42;20.70;99.90
3628;DHT22;1830;49.000;12.074;2023-09-19T15:21:10;20.70;99.90
3628;DHT22;1830;49.000;12.074;2023-09-19T15:23:38;20.70;99.90
3628;DHT22;1830;49.000;12.074;2023-09-19T15:26:08;20.80;99.90
3628;DHT22;1830;49.000;12.074;2023-09-19T15:28:35;20.80;99.90
3628;DHT22;1830;49.000;12.074;2023-09-19T15:31:04;20.80;99.90
3628;DHT22;1830;49.000;12.074;2023-09-19T15:33:31;20.80;99.90
3628;DHT22;1830;49.000;12.074;2023-09-19T15:36:02;20.80;99.90
3628;DHT22;1830;49.000;12.074;2023-09-19T15:38:30;20.70;99.90
3628;DHT22;1830;49.000;12.074;2023-09-19T15:40:57;20.80;99.90
3628;DHT22;1830;49.000;12.074;2023-09-19T15:43:25;20.70;99.90
3628;DHT22;1830;49.000;12.074;2023-09-19T15:45:52;20.60;99.90
3628;DHT22;1830;49.000;12.074;2023-09-19T15:48:19;20.70;99.90
3628;DHT22;1830;49.000;12.074;2023-09-19T15:50:47;20.60;99.90
3628;DHT22;1830;49.000;12.074;2023-09-19T15:53:14;20.50;99.90
3628;DHT22;1830;49.000;12.074;2023-09-19T15:55:42;20.50;99.90
3628;DHT22;1830;49.000;12.074;2023-09-19T15:58:10;20.50;99.90
3628;DHT22;1830;49.000;12.074;2023-09-19T16:00:41;20.40;99.90
3628;DHT22;1830;49.000;12.074;2023-09-19T16:03:07;20.40;99.90
3628;DHT22;1830;49.000;12.074;2023-09-19T16:05:35;20.30;99.90
3628;DHT22;1830;49.000;12.074;2023-09-19T16:08:06;20.20;99.90
3628;DHT22;1830;49.000;12.074;2023-09-19T16:10:35;20.20;99.90
3628;DHT22;1830;49.000;12.074;2023-09-19T16:13:03;20.20;99.90